Grass Lake, MI (49240)

8:49 AM EDT on June 03, 2015 (GMT -0400)
Stull Rd Grup | | Change Station
CLOSE
Current Station
Personal Weather Station
Location: Grass Lake, MI
Elevation: 997 ft
Nearby Weather Stations

Elev 997 ft 42.29 °N, 84.26 °W | Updated 15 minutes ago

Clear
Clear
59.4 °F
Feels Like 59.4 °F
N
1.7
Wind Variable Wind from WNW

Today
High -- | Low -- °F
--% Chance of Precip.
Yesterday
High -- | Low -- °F
Precip. -- in
6:02 AM 9:08 PM
Full, 99% visible
Pressure 30.14 in
Visibility 10.0 miles
Clouds Clear
Dew Point 52 °F
Humidity 76%
Rainfall 0.00 in
Snow Depth Not available.
UV 1 out of 12
Pollen 7.60 out of 12
Air Quality Not available.
Flu Activity Sporadic
METAR KJXN 031156Z 11006KT 10SM CLR 12/08 A3014 RMK AO2 SLP205 T01220083 10122 20072 53005

More Conditions Fewer Conditions

Pressure 30.14 in
Visibility 10.0 miles
Clouds Clear
Dew Point 52 °F
Humidity 76%
Rainfall 0.00 in
Snow Depth Not available.
UV 1 out of 12
Pollen 7.60 out of 12
Air Quality Not available.
Flu Activity Sporadic
METAR KJXN 031156Z 11006KT 10SM CLR 12/08 A3014 RMK AO2 SLP205 T01220083 10122 20072 53005

More Conditions Fewer Conditions

10-Day Weather Forecast

×

Almanac

Astronomy

Jun. 03, 2015 Rise Set
Actual Time
Civil Twilight
Nautical Twilight
Astronomical Twilight
Moon
Length of Visible Light
Length of Day
Tomorrow will be .
, % of the Moon is Illuminated

Today's Extremes

State Highs State Lows

Community

WunderPhotos

Upload Photos

1,826,209 photos uploaded!

WunderBlogs® & News

Nearby

Air Quality

  Air Quality AQ Index Pollutant
Not available.

Snow Depth

Station Depth Elevation

Earthquake Activity

City Distance Mag. Time & Date
Minimum magnitude displayed is 2.5.

Coastal Water Temperatures

Place Temperature

Stations

Nearby Weather Stations

Station Location Temp. Windchill Dew Point Humidity Wind Precip. Elev Updated Type